Castella, CA (96017)

8:20 PM PST on December 26, 2014 (GMT -0800)
Castle Crags State Park | Change Station
CLOSE
Current Station
Personal Weather Station
Location: Castella, CA
Elevation: 2075 ft
Nearby Weather Stations

Elev 2075 ft 41.15 °N, 122.32 °W | Updated 3 minutes ago

Clear
Clear
30.5 °F
Feels Like 30 °F
N
0.0
Wind Variable Wind from NE
Gusts 0.0 mph

Today
High -- | Low -- °F
--% Chance of Precip.
Yesterday
High -- | Low -- °F
Precip. -- in
7:33 AM 4:46 PM
Waxing Crescent, 32% visible
Pressure 30.42 in
Visibility 5.0 miles
Clouds Clear
Windchill 30 °F
Dew Point 29 °F
Humidity 93%
Rainfall 0.00 in
Snow Depth Not available.
UV 0 out of 12
Pollen 4.60 out of 12
Air Quality Not available.
Flu Activity Not available.
METAR KMHS 270356Z AUTO 00000KT 5SM BR CLR M02/M04 A3029 RMK AO2 SLP299 T10221044

More Conditions Fewer Conditions

Pressure 30.42 in
Visibility 5.0 miles
Clouds Clear
Windchill 30 °F
Dew Point 29 °F
Humidity 93%
Rainfall 0.00 in
Snow Depth Not available.
UV 0 out of 12
Pollen 4.60 out of 12
Air Quality Not available.
Flu Activity Not available.
METAR KMHS 270356Z AUTO 00000KT 5SM BR CLR M02/M04 A3029 RMK AO2 SLP299 T10221044

More Conditions Fewer Conditions

10-Day Weather Forecast

Almanac

Astronomy

Dec. 26, 2014 Rise Set
Actual Time
Civil Twilight
Nautical Twilight
Astronomical Twilight
Moon
Length of Visible Light
Length of Day
Tomorrow will be .
, % of the Moon is Illuminated

Today's Extremes

State Highs State Lows

Community

WunderPhotos

Upload Photos

1,780,846 photos uploaded!

WunderBlogs® & News

Nearby

Air Quality

  Air Quality AQ Index Pollutant
Not available.

Snow Depth

Station Depth Elevation

Earthquake Activity

City Distance Mag. Time & Date
Minimum magnitude displayed is 2.5.

Coastal Water Temperatures

Place Temperature

Nearby Weather Stations